createdAt,value
2018-03-18T00:01:44.017Z,85.00
2018-03-18T00:04:12.434Z,90.10
2018-03-18T00:06:40.816Z,89.50
2018-03-18T00:09:09.200Z,84.40
2018-03-18T00:11:37.592Z,83.70
2018-03-18T00:14:05.975Z,82.50
2018-03-18T00:16:34.396Z,86.10
2018-03-18T00:19:02.776Z,86.10
2018-03-18T00:21:31.155Z,85.50
2018-03-18T00:23:59.557Z,86.50
2018-03-18T00:26:27.946Z,86.80
2018-03-18T00:28:56.332Z,85.30
2018-03-18T00:31:24.702Z,84.60
2018-03-18T00:33:53.065Z,88.50
2018-03-18T00:36:21.437Z,88.90
2018-03-18T00:38:49.832Z,90.30
2018-03-18T00:41:18.212Z,86.70
2018-03-18T00:43:46.642Z,84.60
2018-03-18T00:46:15.019Z,89.30
2018-03-18T00:48:43.403Z,91.30
2018-03-18T00:51:11.863Z,87.20
2018-03-18T00:53:40.991Z,88.60
2018-03-18T00:56:09.389Z,88.60
2018-03-18T00:58:37.774Z,90.60
2018-03-18T01:01:06.333Z,88.40
2018-03-18T01:03:34.694Z,85.70
2018-03-18T01:06:03.083Z,88.50
2018-03-18T01:08:32.218Z,89.40
2018-03-18T01:11:00.594Z,89.40
2018-03-18T01:13:28.979Z,85.10
2018-03-18T01:15:57.343Z,90.60
2018-03-18T01:18:25.780Z,85.90
2018-03-18T01:20:54.165Z,89.10
2018-03-18T01:23:22.550Z,84.30
2018-03-18T01:25:50.932Z,86.40
2018-03-18T01:28:19.278Z,83.70
2018-03-18T01:30:48.412Z,85.30
2018-03-18T01:33:16.762Z,85.10
2018-03-18T01:35:45.163Z,84.00
2018-03-18T01:38:13.537Z,88.40
2018-03-18T01:40:41.924Z,86.40
2018-03-18T01:43:10.360Z,89.90
2018-03-18T01:45:38.722Z,90.00
2018-03-18T01:48:07.893Z,86.70
2018-03-18T01:50:36.260Z,86.80
2018-03-18T01:53:16.505Z,87.90
2018-03-18T01:55:44.863Z,88.10
2018-03-18T01:58:13.237Z,85.60
2018-03-18T02:00:41.623Z,84.50
2018-03-18T02:03:09.978Z,84.90
2018-03-18T02:05:39.138Z,87.20
2018-03-18T02:08:07.520Z,87.30
2018-03-18T02:10:35.905Z,88.00
2018-03-18T02:13:04.295Z,84.50
2018-03-18T02:15:33.461Z,86.50
2018-03-18T02:18:01.845Z,86.30
2018-03-18T02:20:30.250Z,86.60
2018-03-18T02:22:59.412Z,87.80
2018-03-18T02:25:27.809Z,87.80
2018-03-18T02:27:56.185Z,85.00
2018-03-18T02:30:24.570Z,86.50
2018-03-18T02:32:53.722Z,86.00
2018-03-18T02:35:22.080Z,85.30
2018-03-18T02:37:50.500Z,86.90
2018-03-18T02:40:18.866Z,84.80
2018-03-18T02:42:47.230Z,88.90
2018-03-18T02:45:15.629Z,85.50
2018-03-18T02:47:43.986Z,88.80
2018-03-18T02:50:12.383Z,84.20
2018-03-18T02:52:40.758Z,87.30
2018-03-18T02:55:09.156Z,85.30
2018-03-18T02:57:37.578Z,82.70
2018-03-18T03:00:05.978Z,86.60
2018-03-18T03:02:34.379Z,83.90
2018-03-18T03:05:02.738Z,86.80
2018-03-18T03:07:31.187Z,87.10
2018-03-18T03:09:59.572Z,88.10
2018-03-18T03:12:27.946Z,85.90
2018-03-18T03:14:56.369Z,87.10
2018-03-18T03:17:24.754Z,87.10
2018-03-18T03:19:53.157Z,86.50
2018-03-18T03:22:22.351Z,85.90
2018-03-18T03:24:51.548Z,87.20
2018-03-18T03:27:20.668Z,84.50
2018-03-18T03:29:49.044Z,84.60
2018-03-18T03:32:22.103Z,89.10
2018-03-18T03:34:50.463Z,86.20
2018-03-18T03:37:18.826Z,84.70
2018-03-18T03:39:47.254Z,86.70
2018-03-18T03:42:15.640Z,90.60
2018-03-18T03:44:43.999Z,90.40
2018-03-18T03:47:13.147Z,86.40
2018-03-18T03:49:41.542Z,86.40
2018-03-18T03:52:09.915Z,86.40
2018-03-18T03:54:38.281Z,88.00
2018-03-18T03:57:06.678Z,89.80
2018-03-18T03:59:35.036Z,87.40
2018-03-18T04:02:03.464Z,88.60
2018-03-18T04:04:32.582Z,90.30
2018-03-18T04:07:00.987Z,90.30
2018-03-18T04:09:29.344Z,90.00
2018-03-18T04:11:58.491Z,88.50
2018-03-18T04:14:26.934Z,88.50
2018-03-18T04:16:55.292Z,90.40
2018-03-18T04:19:23.664Z,89.90
2018-03-18T04:21:52.042Z,87.80
2018-03-18T04:24:20.414Z,88.90
2018-03-18T04:26:48.824Z,86.80
2018-03-18T04:29:17.190Z,88.40
2018-03-18T04:31:45.591Z,85.10
2018-03-18T04:34:13.972Z,85.70
2018-03-18T04:36:42.330Z,86.70
2018-03-18T04:39:10.704Z,88.90
2018-03-18T04:41:39.084Z,88.80
2018-03-18T04:44:07.463Z,88.20
2018-03-18T04:46:35.810Z,86.70
2018-03-18T04:49:04.206Z,85.20
2018-03-18T04:51:32.596Z,88.60
2018-03-18T04:54:01.014Z,89.90
2018-03-18T04:56:29.383Z,90.90
2018-03-18T04:58:57.739Z,90.50
2018-03-18T05:01:26.146Z,91.40
2018-03-18T05:03:54.510Z,86.90
2018-03-18T05:06:22.901Z,90.50
2018-03-18T05:08:51.270Z,89.50
2018-03-18T05:11:19.640Z,90.60
2018-03-18T05:13:48.036Z,87.80
2018-03-18T05:16:16.382Z,89.80
2018-03-18T05:18:44.784Z,88.00
2018-03-18T05:21:13.208Z,86.30
2018-03-18T05:23:41.590Z,86.30
2018-03-18T05:26:09.938Z,90.80
2018-03-18T05:28:39.075Z,86.40
2018-03-18T05:31:07.453Z,86.40
2018-03-18T05:33:35.823Z,90.00
2018-03-18T05:36:04.186Z,89.80
2018-03-18T05:38:32.637Z,84.70
2018-03-18T05:41:00.983Z,90.90
2018-03-18T05:43:29.344Z,90.20
2018-03-18T05:45:57.741Z,88.90
2018-03-18T05:48:26.114Z,90.30
2018-03-18T05:50:54.535Z,90.30
2018-03-18T05:53:23.673Z,90.70
2018-03-18T05:55:52.040Z,90.70
2018-03-18T05:58:20.439Z,87.80
2018-03-18T06:00:48.780Z,88.10
2018-03-18T06:03:17.154Z,89.00
2018-03-18T06:05:45.525Z,90.60
2018-03-18T06:08:14.654Z,90.80
2018-03-18T06:10:43.025Z,90.80
2018-03-18T06:13:11.407Z,90.00
2018-03-18T06:15:39.760Z,88.80
2018-03-18T06:18:08.190Z,88.40
2018-03-18T06:20:36.561Z,90.80
2018-03-18T06:23:04.938Z,88.80
2018-03-18T06:25:33.333Z,89.00
2018-03-18T06:28:01.706Z,83.50
2018-03-18T06:30:30.072Z,83.90
2018-03-18T06:32:58.435Z,85.30
2018-03-18T06:35:26.786Z,85.90
2018-03-18T06:37:55.199Z,84.00
2018-03-18T06:40:23.567Z,86.60
2018-03-18T06:42:51.974Z,84.40
2018-03-18T06:45:20.378Z,87.00
2018-03-18T06:47:49.508Z,83.70
2018-03-18T06:50:17.885Z,83.60
2018-03-18T06:52:46.248Z,83.30
2018-03-18T06:55:14.661Z,86.40
2018-03-18T06:57:43.013Z,83.60
2018-03-18T07:00:11.376Z,81.30
2018-03-18T07:02:40.253Z,81.50
2018-03-18T07:05:09.379Z,78.00
2018-03-18T07:07:37.765Z,77.90
2018-03-18T07:10:06.910Z,79.00
2018-03-18T07:12:35.249Z,79.00
2018-03-18T07:15:03.674Z,82.80
2018-03-18T07:17:32.831Z,79.00
2018-03-18T07:20:01.266Z,79.00
2018-03-18T07:22:30.368Z,77.90
2018-03-18T07:24:58.766Z,77.90
2018-03-18T07:27:27.192Z,77.50
2018-03-18T07:29:56.335Z,76.30
2018-03-18T07:32:25.475Z,77.80
2018-03-18T07:34:53.854Z,77.80
2018-03-18T07:37:22.262Z,78.20
2018-03-18T07:39:51.387Z,74.90
2018-03-18T07:42:19.769Z,74.90
2018-03-18T07:44:48.175Z,73.90
2018-03-18T07:47:16.569Z,74.60
2018-03-18T07:49:44.968Z,71.70
2018-03-18T07:52:13.324Z,71.00
2018-03-18T07:54:42.497Z,73.00
2018-03-18T07:57:10.841Z,72.90
2018-03-18T07:59:39.217Z,73.50
2018-03-18T08:02:07.595Z,70.50
2018-03-18T08:04:35.984Z,72.60
2018-03-18T08:07:04.353Z,70.50
2018-03-18T08:09:32.759Z,69.40
2018-03-18T08:12:01.172Z,70.50
2018-03-18T08:14:29.536Z,70.50
2018-03-18T08:16:57.903Z,70.90
2018-03-18T08:19:26.294Z,71.80
2018-03-18T08:21:54.658Z,71.10
2018-03-18T08:24:23.044Z,70.50
2018-03-18T08:26:51.426Z,70.70
2018-03-18T08:29:19.792Z,69.60
2018-03-18T08:31:48.213Z,66.00
2018-03-18T08:34:16.561Z,67.80
2018-03-18T08:36:44.960Z,69.10
2018-03-18T08:39:13.346Z,70.00
2018-03-18T08:41:41.740Z,66.90
2018-03-18T08:44:10.095Z,70.10
2018-03-18T08:46:38.486Z,66.20
2018-03-18T08:49:06.849Z,65.40
2018-03-18T08:51:36.007Z,68.20
2018-03-18T08:54:04.407Z,68.20
2018-03-18T08:56:33.567Z,65.70
2018-03-18T08:59:02.005Z,65.60
2018-03-18T09:01:30.394Z,66.60
2018-03-18T09:03:58.749Z,65.40
2018-03-18T09:06:28.638Z,66.80
2018-03-18T09:08:57.032Z,66.60
2018-03-18T09:11:26.214Z,63.50
2018-03-18T09:13:54.557Z,63.80
2018-03-18T09:16:22.941Z,65.20
2018-03-18T09:18:51.327Z,66.80
2018-03-18T09:21:19.765Z,63.00
2018-03-18T09:23:48.129Z,63.40
2018-03-18T09:26:17.261Z,63.80
2018-03-18T09:28:46.029Z,63.80
2018-03-18T09:31:14.625Z,66.60
2018-03-18T09:33:44.101Z,66.70
2018-03-18T09:36:13.444Z,64.00
2018-03-18T09:38:43.254Z,63.80
2018-03-18T09:41:18.109Z,63.00
2018-03-18T09:43:46.757Z,62.80
2018-03-18T09:46:15.099Z,60.80
2018-03-18T09:48:44.328Z,63.60
2018-03-18T09:51:12.731Z,63.60
2018-03-18T09:53:41.570Z,60.60
2018-03-18T09:56:09.967Z,60.20
2018-03-18T09:58:38.317Z,59.40
2018-03-18T10:01:07.473Z,61.10
2018-03-18T10:03:35.834Z,61.40
2018-03-18T10:06:05.700Z,59.90
2018-03-18T10:08:35.432Z,61.30
2018-03-18T10:11:03.820Z,61.30
2018-03-18T10:13:33.499Z,57.50
2018-03-18T10:16:01.907Z,60.20
2018-03-18T10:18:30.568Z,61.60
2018-03-18T10:20:59.728Z,57.70
2018-03-18T10:23:28.128Z,57.90
2018-03-18T10:25:56.602Z,57.60
2018-03-18T10:28:30.175Z,57.30
2018-03-18T10:31:02.556Z,57.90
2018-03-18T10:33:31.679Z,57.90
2018-03-18T10:36:00.244Z,59.70
2018-03-18T10:38:29.280Z,60.00
2018-03-18T10:40:57.691Z,57.90
2018-03-18T10:43:26.026Z,55.60
2018-03-18T10:45:54.420Z,55.50
2018-03-18T10:48:22.750Z,57.50
2018-03-18T10:50:51.111Z,59.30
2018-03-18T10:53:19.516Z,56.40
2018-03-18T10:55:48.660Z,55.30
2018-03-18T10:58:17.033Z,55.10
2018-03-18T11:00:51.377Z,56.40
2018-03-18T11:03:19.768Z,54.90
2018-03-18T11:05:48.178Z,56.80
2018-03-18T11:08:18.508Z,55.90
2018-03-18T11:10:47.130Z,55.20
2018-03-18T11:13:15.587Z,53.80
2018-03-18T11:15:43.952Z,56.00
2018-03-18T11:18:12.339Z,54.60
2018-03-18T11:20:40.732Z,54.80
2018-03-18T11:23:09.189Z,53.10
2018-03-18T11:25:37.549Z,54.90
2018-03-18T11:28:05.896Z,54.50
2018-03-18T11:30:34.309Z,53.20
2018-03-18T11:33:02.672Z,53.00
2018-03-18T11:35:31.779Z,55.70
2018-03-18T11:38:00.262Z,55.70
2018-03-18T11:40:28.611Z,53.10
2018-03-18T11:42:57.749Z,52.50
2018-03-18T11:45:26.114Z,52.50
2018-03-18T11:47:55.631Z,55.70
2018-03-18T11:50:23.973Z,54.80
2018-03-18T11:52:53.172Z,54.90
2018-03-18T11:55:22.303Z,55.40
2018-03-18T11:57:50.656Z,55.40
2018-03-18T12:00:19.010Z,51.70
2018-03-18T12:02:47.376Z,53.70
2018-03-18T12:05:16.336Z,53.50
2018-03-18T12:07:45.785Z,52.90
2018-03-18T12:10:15.732Z,53.10
2018-03-18T12:12:48.264Z,51.40
2018-03-18T12:15:18.091Z,51.20
2018-03-18T12:17:52.957Z,52.20
2018-03-18T12:20:21.381Z,53.00
2018-03-18T12:22:49.770Z,53.40
2018-03-18T12:25:18.116Z,51.60
2018-03-18T12:27:46.576Z,54.00
2018-03-18T12:30:14.927Z,53.30
2018-03-18T12:32:43.270Z,52.70
2018-03-18T12:35:11.651Z,53.50
2018-03-18T12:37:40.022Z,50.40
2018-03-18T12:40:31.518Z,51.60
2018-03-18T12:43:11.802Z,49.80
2018-03-18T12:45:40.158Z,52.50
2018-03-18T12:48:08.510Z,49.20
2018-03-18T12:50:36.898Z,48.30
2018-03-18T12:53:07.309Z,49.60
2018-03-18T12:55:35.654Z,51.50
2018-03-18T12:58:04.770Z,51.20
2018-03-18T13:00:33.152Z,51.20
2018-03-18T13:03:01.517Z,51.00
2018-03-18T13:05:29.909Z,52.50
2018-03-18T13:07:58.286Z,50.10
2018-03-18T13:10:26.658Z,51.30
2018-03-18T13:12:55.014Z,51.60
2018-03-18T13:15:24.172Z,51.20
2018-03-18T13:17:52.536Z,51.20
2018-03-18T13:20:20.869Z,49.90
2018-03-18T13:22:49.293Z,51.30
2018-03-18T13:25:17.652Z,50.80
2018-03-18T13:27:46.011Z,50.90
2018-03-18T13:30:14.387Z,48.40
2018-03-18T13:32:42.752Z,49.70
2018-03-18T13:35:11.946Z,48.70
2018-03-18T13:37:41.087Z,52.20
2018-03-18T13:40:09.433Z,52.10
2018-03-18T13:42:38.794Z,50.90
2018-03-18T13:45:07.169Z,52.40
2018-03-18T13:47:35.565Z,52.00
2018-03-18T13:50:03.936Z,49.50
2018-03-18T13:52:32.279Z,48.70
2018-03-18T13:55:00.681Z,49.40
2018-03-18T13:57:29.052Z,49.20
2018-03-18T13:59:57.409Z,49.50
2018-03-18T14:02:25.790Z,48.90
2018-03-18T14:04:54.168Z,50.10
2018-03-18T14:07:22.522Z,51.60
2018-03-18T14:09:50.948Z,51.60
2018-03-18T14:12:19.329Z,52.50
2018-03-18T14:14:47.675Z,49.80
2018-03-18T14:17:16.065Z,51.30
2018-03-18T14:19:44.438Z,50.90
2018-03-18T14:22:12.817Z,49.50
2018-03-18T14:24:41.156Z,51.00
2018-03-18T14:27:09.567Z,51.00
2018-03-18T14:29:37.936Z,50.00
2018-03-18T14:32:06.297Z,50.60
2018-03-18T14:34:35.452Z,51.20
2018-03-18T14:37:03.837Z,51.00
2018-03-18T14:39:32.963Z,50.10
2018-03-18T14:42:01.339Z,49.30
2018-03-18T14:44:29.715Z,48.10
2018-03-18T14:46:58.078Z,49.10
2018-03-18T14:49:26.493Z,49.40
2018-03-18T14:51:54.910Z,50.60
2018-03-18T14:54:23.238Z,49.80
2018-03-18T14:56:51.600Z,49.30
2018-03-18T14:59:20.013Z,50.20
2018-03-18T15:01:48.362Z,48.60
2018-03-18T15:04:16.739Z,48.80
2018-03-18T15:06:45.069Z,49.00
2018-03-18T15:09:13.451Z,49.50
2018-03-18T15:11:41.788Z,48.80
2018-03-18T15:14:10.146Z,47.50
2018-03-18T15:16:38.519Z,48.00
2018-03-18T15:19:06.905Z,47.80
2018-03-18T15:21:35.286Z,51.20
2018-03-18T15:24:03.664Z,49.10
2018-03-18T15:26:32.066Z,49.80
2018-03-18T15:29:00.436Z,50.60
2018-03-18T15:31:28.817Z,48.80
2018-03-18T15:33:57.206Z,49.30
2018-03-18T15:36:25.556Z,49.10
2018-03-18T15:38:53.951Z,50.50
2018-03-18T15:41:22.309Z,51.40
2018-03-18T15:43:50.665Z,49.90
2018-03-18T15:46:19.845Z,49.10
2018-03-18T15:48:48.214Z,49.00
2018-03-18T15:51:16.566Z,50.50
2018-03-18T15:53:44.948Z,49.00
2018-03-18T15:56:13.339Z,51.40
2018-03-18T15:58:41.708Z,50.00
2018-03-18T16:01:10.053Z,51.10
2018-03-18T16:03:38.426Z,49.50
2018-03-18T16:06:06.759Z,50.50
2018-03-18T16:08:35.118Z,50.30
2018-03-18T16:11:03.509Z,51.10
2018-03-18T16:13:31.893Z,49.70
2018-03-18T16:16:01.042Z,53.60
2018-03-18T16:18:29.418Z,53.60
2018-03-18T16:20:57.811Z,51.20
2018-03-18T16:23:26.207Z,52.50
2018-03-18T16:25:54.542Z,50.50
2018-03-18T16:28:22.918Z,51.40
2018-03-18T16:31:04.073Z,48.50
2018-03-18T16:33:33.108Z,48.50
2018-03-18T16:36:01.461Z,49.70
2018-03-18T16:38:29.863Z,50.90
2018-03-18T16:40:58.238Z,51.80
2018-03-18T16:43:26.588Z,50.30
2018-03-18T16:45:54.947Z,49.50
2018-03-18T16:48:24.088Z,50.20
2018-03-18T16:50:52.474Z,50.20
2018-03-18T16:53:20.853Z,49.80
2018-03-18T16:55:49.244Z,48.80
2018-03-18T16:58:17.579Z,52.00
2018-03-18T17:00:45.940Z,50.90
2018-03-18T17:03:15.104Z,49.50
2018-03-18T17:05:43.489Z,49.40
2018-03-18T17:08:11.860Z,50.20
2018-03-18T17:10:40.219Z,50.60
2018-03-18T17:13:08.592Z,52.10
2018-03-18T17:15:36.974Z,51.50
2018-03-18T17:18:05.318Z,50.10
2018-03-18T17:20:33.766Z,54.90
2018-03-18T17:23:02.914Z,51.40
2018-03-18T17:25:31.255Z,51.40
2018-03-18T17:27:59.634Z,52.20
2018-03-18T17:30:27.992Z,53.80
2018-03-18T17:32:57.179Z,55.00
2018-03-18T17:35:25.539Z,54.90
2018-03-18T17:37:53.938Z,54.20
2018-03-18T17:40:23.092Z,57.20
2018-03-18T17:42:51.445Z,57.10
2018-03-18T17:45:31.641Z,56.70
2018-03-18T17:48:11.908Z,58.70
2018-03-18T17:53:54.873Z,58.30
2018-03-18T17:56:37.938Z,59.40
2018-03-18T17:59:06.274Z,58.60
2018-03-18T18:01:34.615Z,59.00
2018-03-18T18:04:02.988Z,57.50
2018-03-18T18:06:32.087Z,57.70
2018-03-18T18:09:00.452Z,57.70
2018-03-18T18:11:28.826Z,59.40
2018-03-18T18:13:57.530Z,57.80
2018-03-18T18:16:25.903Z,56.40
2018-03-18T18:18:54.250Z,57.60
2018-03-18T18:21:23.365Z,60.80
2018-03-18T18:23:51.730Z,60.80
2018-03-18T18:26:20.103Z,59.20
2018-03-18T18:28:49.208Z,58.10
2018-03-18T18:31:17.556Z,58.10
2018-03-18T18:33:45.915Z,57.10
2018-03-18T18:36:14.289Z,60.90
2018-03-18T18:38:42.670Z,58.70
2018-03-18T18:41:11.022Z,59.00
2018-03-18T18:43:39.363Z,59.50
2018-03-18T18:46:08.495Z,59.70
2018-03-18T18:48:36.848Z,59.70
2018-03-18T18:51:05.231Z,60.50
2018-03-18T18:53:33.577Z,58.70
2018-03-18T18:56:01.927Z,60.40
2018-03-18T18:58:30.278Z,61.00
2018-03-18T19:00:58.635Z,62.60
2018-03-18T19:03:27.009Z,58.00
2018-03-18T19:05:55.361Z,60.50
2018-03-18T19:08:23.737Z,60.20
2018-03-18T19:10:52.075Z,61.50
2018-03-18T19:13:21.312Z,62.00
2018-03-18T19:15:49.721Z,61.50
2018-03-18T19:18:18.063Z,60.40
2018-03-18T19:20:46.521Z,59.50
2018-03-18T19:23:14.860Z,58.10
2018-03-18T19:25:43.191Z,58.00
2018-03-18T19:28:11.594Z,59.00
2018-03-18T19:30:40.681Z,57.80
2018-03-18T19:33:09.784Z,60.00
2018-03-18T19:35:38.896Z,56.50
2018-03-18T19:38:07.275Z,56.40
2018-03-18T19:40:35.627Z,60.30
2018-03-18T19:43:05.636Z,63.10
2018-03-18T19:45:34.383Z,62.40
2018-03-18T19:48:02.767Z,60.70
2018-03-18T19:50:34.348Z,60.90
2018-03-18T19:53:02.773Z,59.00
2018-03-18T19:55:33.255Z,59.90
2018-03-18T19:58:04.710Z,59.90
2018-03-18T20:00:33.331Z,60.40
2018-03-18T20:03:01.694Z,63.60
2018-03-18T20:05:30.832Z,63.90
2018-03-18T20:07:59.196Z,63.90
2018-03-18T20:10:27.715Z,60.50
2018-03-18T20:12:56.475Z,62.10
2018-03-18T20:15:24.842Z,64.50
2018-03-18T20:17:54.507Z,62.90
2018-03-18T20:20:23.652Z,64.70
2018-03-18T20:22:53.481Z,61.60
2018-03-18T20:25:22.554Z,59.80
2018-03-18T20:27:51.587Z,58.80
2018-03-18T20:30:20.761Z,63.10
2018-03-18T20:32:49.121Z,63.00
2018-03-18T20:35:17.900Z,63.70
2018-03-18T20:37:47.091Z,61.30
2018-03-18T20:40:15.921Z,60.90
2018-03-18T20:42:44.305Z,64.40
2018-03-18T20:45:12.653Z,64.20
2018-03-18T20:47:40.991Z,63.50
2018-03-18T20:50:10.129Z,63.70
2018-03-18T20:52:38.473Z,63.60
2018-03-18T20:55:06.860Z,66.50
2018-03-18T20:57:35.224Z,68.20
2018-03-18T21:00:03.616Z,66.20
2018-03-18T21:02:31.996Z,67.00
2018-03-18T21:05:00.328Z,66.40
2018-03-18T21:07:28.749Z,63.00
2018-03-18T21:09:57.108Z,61.80
2018-03-18T21:12:26.216Z,64.40
2018-03-18T21:14:54.561Z,64.40
2018-03-18T21:17:22.976Z,65.00
2018-03-18T21:19:51.343Z,61.50
2018-03-18T21:22:19.772Z,62.50
2018-03-18T21:24:48.136Z,62.00
2018-03-18T21:27:16.484Z,68.40
2018-03-18T21:29:44.829Z,62.40
2018-03-18T21:32:13.248Z,65.60
2018-03-18T21:34:41.600Z,67.60
2018-03-18T21:37:10.006Z,63.00
2018-03-18T21:39:38.354Z,62.50
2018-03-18T21:42:07.615Z,67.90
2018-03-18T21:44:36.101Z,67.70
2018-03-18T21:47:04.456Z,64.50
2018-03-18T21:49:32.849Z,62.90
2018-03-18T21:52:01.199Z,65.00
2018-03-18T21:54:29.594Z,64.50
2018-03-18T21:56:58.503Z,63.50
2018-03-18T21:59:26.942Z,62.20
2018-03-18T22:01:55.273Z,62.70
2018-03-18T22:04:23.695Z,60.90
2018-03-18T22:06:52.053Z,63.40
2018-03-18T22:09:20.412Z,63.80
2018-03-18T22:11:48.790Z,64.60
2018-03-18T22:14:17.162Z,65.80
2018-03-18T22:16:45.550Z,66.60
2018-03-18T22:19:13.879Z,68.30
2018-03-18T22:21:42.246Z,67.30
2018-03-18T22:24:10.608Z,65.30
2018-03-18T22:26:38.923Z,64.50
2018-03-18T22:29:07.317Z,64.30
2018-03-18T22:31:35.959Z,61.70
2018-03-18T22:34:04.358Z,62.80
2018-03-18T22:36:32.695Z,65.60
2018-03-18T22:39:01.803Z,66.00
2018-03-18T22:41:31.505Z,66.00
2018-03-18T22:44:00.120Z,67.00
2018-03-18T22:46:30.406Z,64.10
2018-03-18T22:48:59.975Z,59.70
2018-03-18T22:51:28.296Z,60.30
2018-03-18T22:53:56.671Z,63.20
2018-03-18T22:56:25.067Z,66.30
2018-03-18T22:58:53.880Z,63.60
2018-03-18T23:01:22.217Z,67.20
2018-03-18T23:03:50.580Z,64.70
2018-03-18T23:06:19.664Z,68.40
2018-03-18T23:08:48.013Z,68.30
2018-03-18T23:11:16.385Z,67.40
2018-03-18T23:13:44.783Z,64.60
2018-03-18T23:16:13.119Z,64.00
2018-03-18T23:18:42.216Z,66.20
2018-03-18T23:21:11.312Z,66.10
2018-03-18T23:23:39.673Z,68.10
2018-03-18T23:26:08.022Z,63.80
2018-03-18T23:28:37.572Z,67.10
2018-03-18T23:31:07.238Z,64.50
2018-03-18T23:33:36.381Z,66.10
2018-03-18T23:36:04.751Z,66.10
2018-03-18T23:38:34.228Z,69.50
2018-03-18T23:41:03.360Z,69.70
2018-03-18T23:43:32.054Z,69.60
2018-03-18T23:46:00.402Z,68.30
2018-03-18T23:48:29.816Z,68.20
2018-03-18T23:51:00.266Z,68.10
2018-03-18T23:53:28.615Z,68.90
2018-03-18T23:55:56.970Z,67.80
2018-03-18T23:58:26.098Z,68.90
